Decoded Metar for EINN (SHANNON in IRELAND) (IATA:SNN) | Meteo·Mobile Aviation Weather
aviador You're here:

EINN Decoded Metar

SHANNON in IRELAND
Report Time2019-01-18 14:00:00
UTC Time2019-01-18 14:21:03
Flight Rules vfr VFR
Wind200° at 09 kt
W.Decomp.*RWY 24: 7.4 kt HW 5.2 kt LCW
W.Rank200° ranks 19
Current wind is above 200° avg. (8.9)
Visibility9999 m
Phenomena:N/A
Clouds:Few 021 Hf
Expected CloudBase > 2,000 ft AGL from Temp-Dew spread
CeilingNone
Temp10°C (ISA -5)
Dew Point05°C (71% RH)
AAT5.6°C
QNH1003 hPa
Density Alt-56 ft
Elevation66 ft
Report Wrong Elevation
Raw Report
EINN 181400Z 20009KT 9999 FEW021 10/05 Q1003 NOSIG=

Extra information for EINN:More info

Metar Taf Metar & Taf Last 4 Metars F.Rules Stats Wind Profile Meteogram Temp Stats Airport Information Weather charts Add Link Nearby VenuesMetar ALERT Operation Metar Decoded Social comments